sensor_id;sensor_type;location;lat;lon;timestamp;P1;durP1;ratioP1;P2;durP2;ratioP2
1837;SDS011;918;50.796;6.772;2023-10-31T00:01:01;1.97;;;1.83;;
1837;SDS011;918;50.796;6.772;2023-10-31T00:03:27;1.60;;;1.50;;
1837;SDS011;918;50.796;6.772;2023-10-31T00:05:52;1.43;;;1.37;;
1837;SDS011;918;50.796;6.772;2023-10-31T00:08:17;1.20;;;1.20;;
1837;SDS011;918;50.796;6.772;2023-10-31T00:10:42;1.47;;;1.37;;
1837;SDS011;918;50.796;6.772;2023-10-31T00:13:09;1.43;;;1.33;;
1837;SDS011;918;50.796;6.772;2023-10-31T00:15:35;1.50;;;1.40;;
1837;SDS011;918;50.796;6.772;2023-10-31T00:18:00;1.80;;;1.70;;
1837;SDS011;918;50.796;6.772;2023-10-31T00:20:25;3.40;;;1.63;;
1837;SDS011;918;50.796;6.772;2023-10-31T00:22:51;1.57;;;1.47;;
1837;SDS011;918;50.796;6.772;2023-10-31T00:25:16;1.40;;;1.30;;
1837;SDS011;918;50.796;6.772;2023-10-31T00:27:41;1.47;;;1.37;;
1837;SDS011;918;50.796;6.772;2023-10-31T00:30:06;1.50;;;1.40;;
1837;SDS011;918;50.796;6.772;2023-10-31T00:32:32;1.57;;;1.47;;
1837;SDS011;918;50.796;6.772;2023-10-31T00:34:57;1.63;;;1.53;;
1837;SDS011;918;50.796;6.772;2023-10-31T00:37:22;1.73;;;1.63;;
1837;SDS011;918;50.796;6.772;2023-10-31T00:39:48;1.47;;;1.37;;
1837;SDS011;918;50.796;6.772;2023-10-31T00:42:13;1.83;;;1.73;;
1837;SDS011;918;50.796;6.772;2023-10-31T00:44:39;3.80;;;1.90;;
1837;SDS011;918;50.796;6.772;2023-10-31T00:47:04;2.10;;;2.00;;
1837;SDS011;918;50.796;6.772;2023-10-31T00:49:30;1.80;;;1.70;;
1837;SDS011;918;50.796;6.772;2023-10-31T00:51:55;2.10;;;1.90;;
1837;SDS011;918;50.796;6.772;2023-10-31T00:54:20;2.20;;;2.10;;
1837;SDS011;918;50.796;6.772;2023-10-31T00:56:46;3.80;;;2.10;;
1837;SDS011;918;50.796;6.772;2023-10-31T00:59:11;2.43;;;2.23;;
1837;SDS011;918;50.796;6.772;2023-10-31T01:01:36;2.03;;;1.80;;
1837;SDS011;918;50.796;6.772;2023-10-31T01:04:02;3.23;;;2.80;;
1837;SDS011;918;50.796;6.772;2023-10-31T01:06:27;1.70;;;1.60;;
1837;SDS011;918;50.796;6.772;2023-10-31T01:08:52;2.20;;;2.10;;
1837;SDS011;918;50.796;6.772;2023-10-31T01:11:17;2.80;;;2.60;;
1837;SDS011;918;50.796;6.772;2023-10-31T01:13:43;2.30;;;2.10;;
1837;SDS011;918;50.796;6.772;2023-10-31T01:16:08;2.60;;;1.73;;
1837;SDS011;918;50.796;6.772;2023-10-31T01:18:34;2.50;;;1.70;;
1837;SDS011;918;50.796;6.772;2023-10-31T01:20:59;2.27;;;1.97;;
1837;SDS011;918;50.796;6.772;2023-10-31T01:23:24;3.30;;;1.50;;
1837;SDS011;918;50.796;6.772;2023-10-31T01:25:49;2.87;;;1.83;;
1837;SDS011;918;50.796;6.772;2023-10-31T01:28:14;3.50;;;1.57;;
1837;SDS011;918;50.796;6.772;2023-10-31T01:30:40;2.13;;;1.23;;
1837;SDS011;918;50.796;6.772;2023-10-31T01:33:05;1.83;;;1.43;;
1837;SDS011;918;50.796;6.772;2023-10-31T01:35:30;2.70;;;1.50;;
1837;SDS011;918;50.796;6.772;2023-10-31T01:37:55;2.40;;;2.03;;
1837;SDS011;918;50.796;6.772;2023-10-31T01:40:21;2.30;;;1.20;;
1837;SDS011;918;50.796;6.772;2023-10-31T01:42:46;1.73;;;1.37;;
1837;SDS011;918;50.796;6.772;2023-10-31T01:45:12;2.30;;;1.17;;
1837;SDS011;918;50.796;6.772;2023-10-31T01:47:38;1.90;;;1.13;;
1837;SDS011;918;50.796;6.772;2023-10-31T01:50:03;1.90;;;1.30;;
1837;SDS011;918;50.796;6.772;2023-10-31T01:52:28;2.23;;;1.57;;
1837;SDS011;918;50.796;6.772;2023-10-31T01:54:57;1.60;;;1.07;;
1837;SDS011;918;50.796;6.772;2023-10-31T01:57:22;2.03;;;1.20;;
1837;SDS011;918;50.796;6.772;2023-10-31T01:59:48;1.50;;;1.40;;
1837;SDS011;918;50.796;6.772;2023-10-31T02:02:13;1.80;;;1.50;;
1837;SDS011;918;50.796;6.772;2023-10-31T02:04:39;2.23;;;1.67;;
1837;SDS011;918;50.796;6.772;2023-10-31T02:07:04;2.80;;;1.53;;
1837;SDS011;918;50.796;6.772;2023-10-31T02:09:29;2.67;;;1.30;;
1837;SDS011;918;50.796;6.772;2023-10-31T02:11:55;2.13;;;1.40;;
1837;SDS011;918;50.796;6.772;2023-10-31T02:14:21;2.00;;;1.50;;
1837;SDS011;918;50.796;6.772;2023-10-31T02:16:48;1.50;;;1.40;;
1837;SDS011;918;50.796;6.772;2023-10-31T02:19:13;3.43;;;1.60;;
1837;SDS011;918;50.796;6.772;2023-10-31T02:21:43;1.23;;;1.20;;
1837;SDS011;918;50.796;6.772;2023-10-31T02:24:09;1.73;;;1.63;;
1837;SDS011;918;50.796;6.772;2023-10-31T02:26:34;2.83;;;1.20;;
1837;SDS011;918;50.796;6.772;2023-10-31T02:29:00;1.20;;;1.10;;
1837;SDS011;918;50.796;6.772;2023-10-31T02:31:26;2.30;;;1.97;;
1837;SDS011;918;50.796;6.772;2023-10-31T02:33:51;1.90;;;1.40;;
1837;SDS011;918;50.796;6.772;2023-10-31T02:36:17;2.07;;;1.40;;
1837;SDS011;918;50.796;6.772;2023-10-31T02:38:42;1.40;;;1.20;;
1837;SDS011;918;50.796;6.772;2023-10-31T02:41:08;3.23;;;1.20;;
1837;SDS011;918;50.796;6.772;2023-10-31T02:43:33;2.60;;;1.20;;
1837;SDS011;918;50.796;6.772;2023-10-31T02:45:58;2.17;;;1.67;;
1837;SDS011;918;50.796;6.772;2023-10-31T02:48:24;2.83;;;1.50;;
1837;SDS011;918;50.796;6.772;2023-10-31T02:50:50;1.80;;;1.70;;
1837;SDS011;918;50.796;6.772;2023-10-31T02:53:15;1.73;;;1.10;;
1837;SDS011;918;50.796;6.772;2023-10-31T02:55:40;1.80;;;1.70;;
1837;SDS011;918;50.796;6.772;2023-10-31T02:58:06;3.50;;;1.10;;
1837;SDS011;918;50.796;6.772;2023-10-31T03:00:31;3.43;;;1.40;;
1837;SDS011;918;50.796;6.772;2023-10-31T03:02:56;2.37;;;1.10;;
1837;SDS011;918;50.796;6.772;2023-10-31T03:05:22;3.90;;;1.53;;
1837;SDS011;918;50.796;6.772;2023-10-31T03:07:47;2.30;;;1.40;;
1837;SDS011;918;50.796;6.772;2023-10-31T03:10:12;2.53;;;1.40;;
1837;SDS011;918;50.796;6.772;2023-10-31T03:12:37;3.03;;;1.47;;
1837;SDS011;918;50.796;6.772;2023-10-31T03:15:03;1.33;;;1.10;;
1837;SDS011;918;50.796;6.772;2023-10-31T03:17:29;1.90;;;1.20;;
1837;SDS011;918;50.796;6.772;2023-10-31T03:19:54;3.30;;;1.60;;
1837;SDS011;918;50.796;6.772;2023-10-31T03:22:20;2.03;;;1.40;;
1837;SDS011;918;50.796;6.772;2023-10-31T03:24:46;2.60;;;1.20;;
1837;SDS011;918;50.796;6.772;2023-10-31T03:27:11;1.50;;;1.40;;
1837;SDS011;918;50.796;6.772;2023-10-31T03:29:36;1.67;;;1.10;;
1837;SDS011;918;50.796;6.772;2023-10-31T03:32:01;1.77;;;1.40;;
1837;SDS011;918;50.796;6.772;2023-10-31T03:34:27;2.63;;;1.50;;
1837;SDS011;918;50.796;6.772;2023-10-31T03:36:52;2.80;;;1.33;;
1837;SDS011;918;50.796;6.772;2023-10-31T03:39:18;1.60;;;1.20;;
1837;SDS011;918;50.796;6.772;2023-10-31T03:41:43;2.60;;;1.10;;
1837;SDS011;918;50.796;6.772;2023-10-31T03:44:08;2.00;;;1.40;;
1837;SDS011;918;50.796;6.772;2023-10-31T03:46:34;1.10;;;1.00;;
1837;SDS011;918;50.796;6.772;2023-10-31T03:48:59;2.10;;;1.63;;
1837;SDS011;918;50.796;6.772;2023-10-31T03:51:24;1.13;;;1.13;;
1837;SDS011;918;50.796;6.772;2023-10-31T03:53:49;1.50;;;1.40;;
1837;SDS011;918;50.796;6.772;2023-10-31T03:56:15;1.10;;;1.00;;
1837;SDS011;918;50.796;6.772;2023-10-31T03:58:40;3.70;;;1.40;;
1837;SDS011;918;50.796;6.772;2023-10-31T04:01:07;1.47;;;1.10;;
1837;SDS011;918;50.796;6.772;2023-10-31T04:03:32;2.70;;;1.30;;
1837;SDS011;918;50.796;6.772;2023-10-31T04:05:57;1.30;;;0.80;;
1837;SDS011;918;50.796;6.772;2023-10-31T04:08:23;2.70;;;1.10;;
1837;SDS011;918;50.796;6.772;2023-10-31T04:10:48;2.10;;;1.17;;
1837;SDS011;918;50.796;6.772;2023-10-31T04:13:13;1.93;;;1.10;;
1837;SDS011;918;50.796;6.772;2023-10-31T04:15:38;1.17;;;1.00;;
1837;SDS011;918;50.796;6.772;2023-10-31T04:18:04;1.73;;;1.40;;
1837;SDS011;918;50.796;6.772;2023-10-31T04:20:29;1.07;;;0.97;;
1837;SDS011;918;50.796;6.772;2023-10-31T04:22:54;2.10;;;0.80;;
1837;SDS011;918;50.796;6.772;2023-10-31T04:25:19;0.80;;;0.80;;
1837;SDS011;918;50.796;6.772;2023-10-31T04:27:45;1.07;;;0.97;;
1837;SDS011;918;50.796;6.772;2023-10-31T04:30:10;1.30;;;1.10;;
1837;SDS011;918;50.796;6.772;2023-10-31T04:32:35;1.00;;;1.00;;
1837;SDS011;918;50.796;6.772;2023-10-31T04:35:01;0.90;;;0.90;;
1837;SDS011;918;50.796;6.772;2023-10-31T04:37:26;1.53;;;1.43;;
1837;SDS011;918;50.796;6.772;2023-10-31T04:39:51;0.90;;;0.90;;
1837;SDS011;918;50.796;6.772;2023-10-31T04:42:16;1.43;;;1.10;;
1837;SDS011;918;50.796;6.772;2023-10-31T04:44:42;1.20;;;1.10;;
1837;SDS011;918;50.796;6.772;2023-10-31T04:47:08;1.63;;;1.33;;
1837;SDS011;918;50.796;6.772;2023-10-31T04:49:34;2.10;;;2.00;;
1837;SDS011;918;50.796;6.772;2023-10-31T04:52:00;1.47;;;1.37;;
1837;SDS011;918;50.796;6.772;2023-10-31T04:54:25;1.67;;;1.57;;
1837;SDS011;918;50.796;6.772;2023-10-31T04:56:50;1.67;;;1.57;;
1837;SDS011;918;50.796;6.772;2023-10-31T04:59:16;1.50;;;1.40;;
1837;SDS011;918;50.796;6.772;2023-10-31T05:01:41;1.87;;;1.13;;
1837;SDS011;918;50.796;6.772;2023-10-31T05:04:13;1.50;;;1.37;;
1837;SDS011;918;50.796;6.772;2023-10-31T05:06:38;3.20;;;1.73;;
1837;SDS011;918;50.796;6.772;2023-10-31T05:09:03;2.63;;;2.00;;
1837;SDS011;918;50.796;6.772;2023-10-31T05:11:29;2.93;;;1.87;;
1837;SDS011;918;50.796;6.772;2023-10-31T05:13:54;1.60;;;1.50;;
1837;SDS011;918;50.796;6.772;2023-10-31T05:16:19;1.40;;;1.30;;
1837;SDS011;918;50.796;6.772;2023-10-31T05:18:44;2.10;;;2.00;;
1837;SDS011;918;50.796;6.772;2023-10-31T05:21:10;2.37;;;1.80;;
1837;SDS011;918;50.796;6.772;2023-10-31T05:23:36;2.10;;;1.50;;
1837;SDS011;918;50.796;6.772;2023-10-31T05:26:04;2.10;;;1.90;;
1837;SDS011;918;50.796;6.772;2023-10-31T05:28:30;2.90;;;2.00;;
1837;SDS011;918;50.796;6.772;2023-10-31T05:30:55;2.00;;;1.90;;
1837;SDS011;918;50.796;6.772;2023-10-31T05:33:20;3.63;;;2.27;;
1837;SDS011;918;50.796;6.772;2023-10-31T05:35:46;1.77;;;1.67;;
1837;SDS011;918;50.796;6.772;2023-10-31T05:38:11;1.97;;;1.67;;
1837;SDS011;918;50.796;6.772;2023-10-31T05:40:36;3.00;;;1.57;;
1837;SDS011;918;50.796;6.772;2023-10-31T05:43:02;1.87;;;1.50;;
1837;SDS011;918;50.796;6.772;2023-10-31T05:45:28;1.70;;;1.60;;
1837;SDS011;918;50.796;6.772;2023-10-31T05:47:53;1.87;;;1.77;;
1837;SDS011;918;50.796;6.772;2023-10-31T05:50:18;2.10;;;1.80;;
1837;SDS011;918;50.796;6.772;2023-10-31T05:52:44;2.27;;;2.07;;
1837;SDS011;918;50.796;6.772;2023-10-31T05:55:09;1.97;;;1.87;;
1837;SDS011;918;50.796;6.772;2023-10-31T05:57:34;2.00;;;1.80;;
1837;SDS011;918;50.796;6.772;2023-10-31T06:00:00;2.20;;;1.90;;
1837;SDS011;918;50.796;6.772;2023-10-31T06:02:25;2.63;;;2.10;;
1837;SDS011;918;50.796;6.772;2023-10-31T06:04:50;1.93;;;1.83;;
1837;SDS011;918;50.796;6.772;2023-10-31T06:07:15;1.97;;;1.87;;
1837;SDS011;918;50.796;6.772;2023-10-31T06:09:41;2.90;;;2.07;;
1837;SDS011;918;50.796;6.772;2023-10-31T06:12:06;2.30;;;2.10;;
1837;SDS011;918;50.796;6.772;2023-10-31T06:14:31;3.90;;;2.30;;
1837;SDS011;918;50.796;6.772;2023-10-31T06:16:57;2.23;;;1.97;;
1837;SDS011;918;50.796;6.772;2023-10-31T06:19:24;2.20;;;2.10;;
1837;SDS011;918;50.796;6.772;2023-10-31T06:21:49;2.57;;;2.20;;
1837;SDS011;918;50.796;6.772;2023-10-31T06:24:14;2.80;;;2.60;;
1837;SDS011;918;50.796;6.772;2023-10-31T06:26:40;2.73;;;2.60;;
1837;SDS011;918;50.796;6.772;2023-10-31T06:29:06;2.73;;;2.53;;
1837;SDS011;918;50.796;6.772;2023-10-31T06:31:31;3.23;;;2.07;;
1837;SDS011;918;50.796;6.772;2023-10-31T06:33:56;2.70;;;2.40;;
1837;SDS011;918;50.796;6.772;2023-10-31T06:36:22;2.60;;;2.07;;
1837;SDS011;918;50.796;6.772;2023-10-31T06:38:47;2.60;;;2.50;;
1837;SDS011;918;50.796;6.772;2023-10-31T06:41:12;4.33;;;2.70;;
1837;SDS011;918;50.796;6.772;2023-10-31T06:43:37;2.30;;;2.03;;
1837;SDS011;918;50.796;6.772;2023-10-31T06:46:03;2.60;;;2.40;;
1837;SDS011;918;50.796;6.772;2023-10-31T06:48:30;2.90;;;2.70;;
1837;SDS011;918;50.796;6.772;2023-10-31T06:50:55;3.10;;;2.77;;
1837;SDS011;918;50.796;6.772;2023-10-31T06:53:20;3.27;;;3.00;;
1837;SDS011;918;50.796;6.772;2023-10-31T06:55:45;3.10;;;2.90;;
1837;SDS011;918;50.796;6.772;2023-10-31T06:58:11;2.93;;;2.73;;
1837;SDS011;918;50.796;6.772;2023-10-31T07:00:36;2.60;;;2.40;;
1837;SDS011;918;50.796;6.772;2023-10-31T07:03:02;3.40;;;2.40;;
1837;SDS011;918;50.796;6.772;2023-10-31T07:05:31;2.30;;;2.13;;
1837;SDS011;918;50.796;6.772;2023-10-31T07:07:56;2.87;;;2.57;;
1837;SDS011;918;50.796;6.772;2023-10-31T07:10:22;2.67;;;2.43;;
1837;SDS011;918;50.796;6.772;2023-10-31T07:12:47;3.53;;;2.00;;
1837;SDS011;918;50.796;6.772;2023-10-31T07:15:12;5.83;;;3.13;;
1837;SDS011;918;50.796;6.772;2023-10-31T07:17:37;2.37;;;2.20;;
1837;SDS011;918;50.796;6.772;2023-10-31T07:20:03;2.20;;;2.10;;
1837;SDS011;918;50.796;6.772;2023-10-31T07:22:28;2.57;;;2.37;;
1837;SDS011;918;50.796;6.772;2023-10-31T07:24:54;2.47;;;2.10;;
1837;SDS011;918;50.796;6.772;2023-10-31T07:27:19;2.67;;;2.50;;
1837;SDS011;918;50.796;6.772;2023-10-31T07:29:44;3.00;;;2.80;;
1837;SDS011;918;50.796;6.772;2023-10-31T07:32:11;3.03;;;2.73;;
1837;SDS011;918;50.796;6.772;2023-10-31T07:34:36;7.03;;;3.00;;
1837;SDS011;918;50.796;6.772;2023-10-31T07:37:01;3.27;;;3.07;;
1837;SDS011;918;50.796;6.772;2023-10-31T07:39:27;2.80;;;2.63;;
1837;SDS011;918;50.796;6.772;2023-10-31T07:41:52;2.83;;;2.63;;
1837;SDS011;918;50.796;6.772;2023-10-31T07:44:17;3.60;;;2.87;;
1837;SDS011;918;50.796;6.772;2023-10-31T07:46:42;2.73;;;2.53;;
1837;SDS011;918;50.796;6.772;2023-10-31T07:49:08;2.87;;;2.67;;
1837;SDS011;918;50.796;6.772;2023-10-31T07:51:33;2.60;;;2.40;;
1837;SDS011;918;50.796;6.772;2023-10-31T07:53:58;3.07;;;2.77;;
1837;SDS011;918;50.796;6.772;2023-10-31T07:56:24;3.10;;;2.87;;
1837;SDS011;918;50.796;6.772;2023-10-31T07:58:50;3.00;;;2.70;;
1837;SDS011;918;50.796;6.772;2023-10-31T08:01:16;3.20;;;2.90;;
1837;SDS011;918;50.796;6.772;2023-10-31T08:03:42;2.33;;;2.13;;
1837;SDS011;918;50.796;6.772;2023-10-31T08:06:07;2.60;;;2.30;;
1837;SDS011;918;50.796;6.772;2023-10-31T08:08:33;2.80;;;2.60;;
1837;SDS011;918;50.796;6.772;2023-10-31T08:10:59;2.50;;;2.30;;
1837;SDS011;918;50.796;6.772;2023-10-31T08:13:24;2.80;;;2.00;;
1837;SDS011;918;50.796;6.772;2023-10-31T08:15:50;2.50;;;2.30;;
1837;SDS011;918;50.796;6.772;2023-10-31T08:18:15;2.27;;;1.97;;
1837;SDS011;918;50.796;6.772;2023-10-31T08:20:40;2.00;;;1.90;;
1837;SDS011;918;50.796;6.772;2023-10-31T08:23:05;2.57;;;2.27;;
1837;SDS011;918;50.796;6.772;2023-10-31T08:25:31;4.60;;;2.00;;
1837;SDS011;918;50.796;6.772;2023-10-31T08:27:56;5.60;;;1.50;;
1837;SDS011;918;50.796;6.772;2023-10-31T08:30:21;2.20;;;2.00;;
1837;SDS011;918;50.796;6.772;2023-10-31T08:32:47;2.03;;;1.70;;
1837;SDS011;918;50.796;6.772;2023-10-31T08:35:12;2.30;;;2.10;;
1837;SDS011;918;50.796;6.772;2023-10-31T08:37:37;2.50;;;2.10;;
1837;SDS011;918;50.796;6.772;2023-10-31T08:40:03;1.90;;;1.60;;
1837;SDS011;918;50.796;6.772;2023-10-31T08:42:29;1.80;;;1.70;;
1837;SDS011;918;50.796;6.772;2023-10-31T08:44:55;1.80;;;1.70;;
1837;SDS011;918;50.796;6.772;2023-10-31T08:47:20;1.67;;;1.57;;
1837;SDS011;918;50.796;6.772;2023-10-31T08:49:45;1.80;;;1.53;;
1837;SDS011;918;50.796;6.772;2023-10-31T08:52:11;3.00;;;2.10;;
1837;SDS011;918;50.796;6.772;2023-10-31T08:54:36;2.20;;;1.87;;
1837;SDS011;918;50.796;6.772;2023-10-31T08:57:01;1.90;;;1.80;;
1837;SDS011;918;50.796;6.772;2023-10-31T08:59:26;1.70;;;1.60;;
1837;SDS011;918;50.796;6.772;2023-10-31T09:01:51;1.87;;;1.60;;
1837;SDS011;918;50.796;6.772;2023-10-31T09:04:17;1.60;;;1.50;;
1837;SDS011;918;50.796;6.772;2023-10-31T09:06:42;1.63;;;1.53;;
1837;SDS011;918;50.796;6.772;2023-10-31T09:09:07;1.60;;;1.50;;
1837;SDS011;918;50.796;6.772;2023-10-31T09:11:32;1.30;;;1.30;;
1837;SDS011;918;50.796;6.772;2023-10-31T09:13:58;1.93;;;1.80;;
1837;SDS011;918;50.796;6.772;2023-10-31T09:16:23;3.57;;;1.30;;
1837;SDS011;918;50.796;6.772;2023-10-31T09:18:48;1.63;;;1.20;;
1837;SDS011;918;50.796;6.772;2023-10-31T09:21:13;1.87;;;1.50;;
1837;SDS011;918;50.796;6.772;2023-10-31T09:23:39;1.37;;;1.10;;
1837;SDS011;918;50.796;6.772;2023-10-31T09:26:04;1.80;;;1.33;;
1837;SDS011;918;50.796;6.772;2023-10-31T09:28:30;1.63;;;1.20;;
1837;SDS011;918;50.796;6.772;2023-10-31T09:30:55;2.30;;;1.30;;
1837;SDS011;918;50.796;6.772;2023-10-31T09:33:20;1.07;;;1.00;;
1837;SDS011;918;50.796;6.772;2023-10-31T09:35:46;1.37;;;1.27;;
1837;SDS011;918;50.796;6.772;2023-10-31T09:38:11;1.40;;;1.30;;
1837;SDS011;918;50.796;6.772;2023-10-31T09:40:37;1.10;;;1.10;;
1837;SDS011;918;50.796;6.772;2023-10-31T09:43:03;0.90;;;0.90;;
1837;SDS011;918;50.796;6.772;2023-10-31T09:45:29;1.33;;;1.23;;
1837;SDS011;918;50.796;6.772;2023-10-31T09:47:54;1.27;;;1.20;;
1837;SDS011;918;50.796;6.772;2023-10-31T09:50:20;2.50;;;1.10;;
1837;SDS011;918;50.796;6.772;2023-10-31T09:52:45;2.20;;;1.17;;
1837;SDS011;918;50.796;6.772;2023-10-31T09:55:11;1.17;;;1.03;;
1837;SDS011;918;50.796;6.772;2023-10-31T09:57:36;1.70;;;0.90;;
1837;SDS011;918;50.796;6.772;2023-10-31T10:00:01;0.90;;;0.90;;
1837;SDS011;918;50.796;6.772;2023-10-31T10:02:26;1.70;;;1.03;;
1837;SDS011;918;50.796;6.772;2023-10-31T10:04:52;0.97;;;0.80;;
1837;SDS011;918;50.796;6.772;2023-10-31T10:07:17;2.80;;;1.43;;
1837;SDS011;918;50.796;6.772;2023-10-31T10:09:43;1.50;;;0.90;;
1837;SDS011;918;50.796;6.772;2023-10-31T10:12:11;1.37;;;0.80;;
1837;SDS011;918;50.796;6.772;2023-10-31T10:14:44;2.70;;;1.13;;
1837;SDS011;918;50.796;6.772;2023-10-31T10:17:22;1.40;;;0.70;;
1837;SDS011;918;50.796;6.772;2023-10-31T10:19:48;1.90;;;0.90;;
1837;SDS011;918;50.796;6.772;2023-10-31T10:22:29;1.10;;;0.90;;
1837;SDS011;918;50.796;6.772;2023-10-31T10:24:55;0.97;;;0.97;;
1837;SDS011;918;50.796;6.772;2023-10-31T10:27:20;0.80;;;0.80;;
1837;SDS011;918;50.796;6.772;2023-10-31T10:29:45;1.73;;;0.90;;
1837;SDS011;918;50.796;6.772;2023-10-31T10:32:11;1.50;;;0.87;;
1837;SDS011;918;50.796;6.772;2023-10-31T10:34:36;1.10;;;1.00;;
1837;SDS011;918;50.796;6.772;2023-10-31T10:37:03;1.13;;;0.90;;
1837;SDS011;918;50.796;6.772;2023-10-31T10:39:30;1.90;;;1.00;;
1837;SDS011;918;50.796;6.772;2023-10-31T10:41:57;2.50;;;1.10;;
1837;SDS011;918;50.796;6.772;2023-10-31T10:47:04;1.97;;;1.00;;
1837;SDS011;918;50.796;6.772;2023-10-31T10:49:34;1.70;;;0.87;;
1837;SDS011;918;50.796;6.772;2023-10-31T10:52:06;1.10;;;0.80;;
1837;SDS011;918;50.796;6.772;2023-10-31T10:57:33;3.30;;;1.10;;
1837;SDS011;918;50.796;6.772;2023-10-31T11:00:03;1.43;;;0.97;;
1837;SDS011;918;50.796;6.772;2023-10-31T11:02:30;1.57;;;1.17;;
1837;SDS011;918;50.796;6.772;2023-10-31T11:04:56;3.53;;;0.90;;
1837;SDS011;918;50.796;6.772;2023-10-31T11:07:21;3.00;;;1.00;;
1837;SDS011;918;50.796;6.772;2023-10-31T11:09:48;1.30;;;1.13;;
1837;SDS011;918;50.796;6.772;2023-10-31T11:12:14;2.63;;;1.60;;
1837;SDS011;918;50.796;6.772;2023-10-31T11:14:41;1.90;;;1.00;;
1837;SDS011;918;50.796;6.772;2023-10-31T11:17:09;1.30;;;1.00;;
1837;SDS011;918;50.796;6.772;2023-10-31T11:19:38;1.00;;;1.00;;
1837;SDS011;918;50.796;6.772;2023-10-31T11:22:03;1.73;;;1.00;;
1837;SDS011;918;50.796;6.772;2023-10-31T11:24:33;1.23;;;1.00;;
1837;SDS011;918;50.796;6.772;2023-10-31T11:27:02;3.90;;;1.23;;
1837;SDS011;918;50.796;6.772;2023-10-31T11:29:30;2.20;;;1.07;;
1837;SDS011;918;50.796;6.772;2023-10-31T11:31:56;2.10;;;1.30;;
1837;SDS011;918;50.796;6.772;2023-10-31T11:34:21;1.13;;;0.90;;
1837;SDS011;918;50.796;6.772;2023-10-31T11:36:47;2.20;;;1.10;;
1837;SDS011;918;50.796;6.772;2023-10-31T11:39:13;1.30;;;0.87;;
1837;SDS011;918;50.796;6.772;2023-10-31T11:41:39;2.40;;;1.20;;
1837;SDS011;918;50.796;6.772;2023-10-31T11:44:04;1.17;;;1.00;;
1837;SDS011;918;50.796;6.772;2023-10-31T11:46:30;1.47;;;0.90;;
1837;SDS011;918;50.796;6.772;2023-10-31T11:48:55;1.57;;;1.40;;
1837;SDS011;918;50.796;6.772;2023-10-31T11:51:21;1.50;;;0.70;;
1837;SDS011;918;50.796;6.772;2023-10-31T11:53:48;1.70;;;1.00;;
1837;SDS011;918;50.796;6.772;2023-10-31T11:56:14;2.97;;;1.23;;
1837;SDS011;918;50.796;6.772;2023-10-31T11:58:40;2.63;;;1.27;;
1837;SDS011;918;50.796;6.772;2023-10-31T12:01:07;1.70;;;0.83;;
1837;SDS011;918;50.796;6.772;2023-10-31T12:03:40;3.20;;;1.40;;
1837;SDS011;918;50.796;6.772;2023-10-31T12:06:06;1.90;;;1.30;;
1837;SDS011;918;50.796;6.772;2023-10-31T12:08:33;1.47;;;1.00;;
1837;SDS011;918;50.796;6.772;2023-10-31T12:11:08;1.37;;;1.27;;
1837;SDS011;918;50.796;6.772;2023-10-31T12:13:35;2.50;;;1.03;;
1837;SDS011;918;50.796;6.772;2023-10-31T12:16:01;1.93;;;1.10;;
1837;SDS011;918;50.796;6.772;2023-10-31T12:18:27;4.50;;;1.03;;
1837;SDS011;918;50.796;6.772;2023-10-31T12:20:53;2.50;;;1.30;;
1837;SDS011;918;50.796;6.772;2023-10-31T12:23:18;1.27;;;1.17;;
1837;SDS011;918;50.796;6.772;2023-10-31T12:25:50;2.00;;;1.03;;
1837;SDS011;918;50.796;6.772;2023-10-31T12:28:16;3.90;;;1.13;;
1837;SDS011;918;50.796;6.772;2023-10-31T12:30:46;1.40;;;1.10;;
1837;SDS011;918;50.796;6.772;2023-10-31T12:33:12;2.60;;;1.30;;
1837;SDS011;918;50.796;6.772;2023-10-31T12:35:37;3.60;;;1.10;;
1837;SDS011;918;50.796;6.772;2023-10-31T12:38:03;2.23;;;1.10;;
1837;SDS011;918;50.796;6.772;2023-10-31T12:40:28;2.63;;;1.50;;
1837;SDS011;918;50.796;6.772;2023-10-31T12:42:53;2.77;;;2.03;;
1837;SDS011;918;50.796;6.772;2023-10-31T12:45:19;1.60;;;1.50;;
1837;SDS011;918;50.796;6.772;2023-10-31T12:47:44;1.73;;;1.50;;
1837;SDS011;918;50.796;6.772;2023-10-31T12:52:48;2.00;;;1.30;;
1837;SDS011;918;50.796;6.772;2023-10-31T12:55:16;2.43;;;1.50;;
1837;SDS011;918;50.796;6.772;2023-10-31T12:57:42;2.43;;;1.47;;
1837;SDS011;918;50.796;6.772;2023-10-31T13:00:08;2.83;;;1.23;;
1837;SDS011;918;50.796;6.772;2023-10-31T13:02:37;1.53;;;1.10;;
1837;SDS011;918;50.796;6.772;2023-10-31T13:05:13;3.30;;;1.40;;
1837;SDS011;918;50.796;6.772;2023-10-31T13:07:41;1.50;;;1.40;;
1837;SDS011;918;50.796;6.772;2023-10-31T13:10:13;3.00;;;1.30;;
1837;SDS011;918;50.796;6.772;2023-10-31T13:12:38;1.53;;;1.20;;
1837;SDS011;918;50.796;6.772;2023-10-31T13:15:03;3.00;;;1.97;;
1837;SDS011;918;50.796;6.772;2023-10-31T13:17:29;2.37;;;1.50;;
1837;SDS011;918;50.796;6.772;2023-10-31T13:19:56;4.90;;;2.00;;
1837;SDS011;918;50.796;6.772;2023-10-31T13:22:21;1.77;;;1.10;;
1837;SDS011;918;50.796;6.772;2023-10-31T13:24:46;2.80;;;1.53;;
1837;SDS011;918;50.796;6.772;2023-10-31T13:27:12;7.80;;;1.30;;
1837;SDS011;918;50.796;6.772;2023-10-31T13:29:41;2.37;;;1.30;;
1837;SDS011;918;50.796;6.772;2023-10-31T13:32:07;2.23;;;1.30;;
1837;SDS011;918;50.796;6.772;2023-10-31T13:34:33;2.80;;;1.57;;
1837;SDS011;918;50.796;6.772;2023-10-31T13:36:58;3.03;;;1.43;;
1837;SDS011;918;50.796;6.772;2023-10-31T13:39:24;3.10;;;1.23;;
1837;SDS011;918;50.796;6.772;2023-10-31T13:41:49;3.67;;;1.20;;
1837;SDS011;918;50.796;6.772;2023-10-31T13:44:14;5.43;;;1.10;;
1837;SDS011;918;50.796;6.772;2023-10-31T13:46:39;1.50;;;1.30;;
1837;SDS011;918;50.796;6.772;2023-10-31T13:49:05;1.97;;;1.40;;
1837;SDS011;918;50.796;6.772;2023-10-31T13:51:32;2.20;;;1.30;;
1837;SDS011;918;50.796;6.772;2023-10-31T13:53:57;1.80;;;1.10;;
1837;SDS011;918;50.796;6.772;2023-10-31T13:56:22;3.17;;;1.33;;
1837;SDS011;918;50.796;6.772;2023-10-31T13:58:47;3.63;;;1.20;;
1837;SDS011;918;50.796;6.772;2023-10-31T14:01:13;4.23;;;1.20;;
1837;SDS011;918;50.796;6.772;2023-10-31T14:03:38;1.50;;;1.17;;
1837;SDS011;918;50.796;6.772;2023-10-31T14:06:04;3.17;;;1.23;;
1837;SDS011;918;50.796;6.772;2023-10-31T14:08:29;3.00;;;1.23;;
1837;SDS011;918;50.796;6.772;2023-10-31T14:10:54;1.50;;;1.07;;
1837;SDS011;918;50.796;6.772;2023-10-31T14:13:21;2.87;;;1.70;;
1837;SDS011;918;50.796;6.772;2023-10-31T14:15:47;1.13;;;1.03;;
1837;SDS011;918;50.796;6.772;2023-10-31T14:18:12;1.20;;;1.10;;
1837;SDS011;918;50.796;6.772;2023-10-31T14:20:38;2.00;;;1.10;;
1837;SDS011;918;50.796;6.772;2023-10-31T14:23:04;1.77;;;1.40;;
1837;SDS011;918;50.796;6.772;2023-10-31T14:25:30;1.50;;;1.40;;
1837;SDS011;918;50.796;6.772;2023-10-31T14:27:55;2.83;;;1.47;;
1837;SDS011;918;50.796;6.772;2023-10-31T14:30:20;2.60;;;1.20;;
1837;SDS011;918;50.796;6.772;2023-10-31T14:32:46;5.07;;;1.43;;
1837;SDS011;918;50.796;6.772;2023-10-31T14:35:12;1.70;;;1.60;;
1837;SDS011;918;50.796;6.772;2023-10-31T14:37:37;4.57;;;3.10;;
1837;SDS011;918;50.796;6.772;2023-10-31T14:40:02;3.67;;;1.20;;
1837;SDS011;918;50.796;6.772;2023-10-31T14:42:28;2.43;;;1.63;;
1837;SDS011;918;50.796;6.772;2023-10-31T14:44:54;2.03;;;1.10;;
1837;SDS011;918;50.796;6.772;2023-10-31T14:47:21;1.60;;;1.50;;
1837;SDS011;918;50.796;6.772;2023-10-31T14:49:46;2.07;;;1.47;;
1837;SDS011;918;50.796;6.772;2023-10-31T14:52:12;3.43;;;1.30;;
1837;SDS011;918;50.796;6.772;2023-10-31T14:54:38;1.47;;;1.37;;
1837;SDS011;918;50.796;6.772;2023-10-31T14:57:04;4.17;;;1.60;;
1837;SDS011;918;50.796;6.772;2023-10-31T14:59:29;3.67;;;1.43;;
1837;SDS011;918;50.796;6.772;2023-10-31T15:01:54;2.33;;;1.50;;
1837;SDS011;918;50.796;6.772;2023-10-31T15:04:20;3.43;;;1.30;;
1837;SDS011;918;50.796;6.772;2023-10-31T15:06:45;1.90;;;1.20;;
1837;SDS011;918;50.796;6.772;2023-10-31T15:09:10;1.37;;;1.10;;
1837;SDS011;918;50.796;6.772;2023-10-31T15:11:36;2.53;;;1.30;;
1837;SDS011;918;50.796;6.772;2023-10-31T15:14:02;2.17;;;1.47;;
1837;SDS011;918;50.796;6.772;2023-10-31T15:16:27;1.37;;;1.20;;
1837;SDS011;918;50.796;6.772;2023-10-31T15:18:53;2.10;;;1.53;;
1837;SDS011;918;50.796;6.772;2023-10-31T15:21:18;1.60;;;1.43;;
1837;SDS011;918;50.796;6.772;2023-10-31T15:23:43;3.40;;;2.10;;
1837;SDS011;918;50.796;6.772;2023-10-31T15:26:09;1.93;;;1.83;;
1837;SDS011;918;50.796;6.772;2023-10-31T15:28:37;3.43;;;1.93;;